KVRB/VRB METAR and TAF weather

Enter ICAO airport designator
Station Type Date Time Source
KVRB METAR 2020/02/24 06:53 UTC NOAA

KVRB 240653Z AUTO 00000KT 10SM CLR 13/11 A3014 RMK AO2 SLP204 T01330111


Station Type Date Time Source
KVRB Decoded METAR 2020/02/24 06:53 UTC NOAA

VERO BEACH MUNICIPAL AIRPORT , FL, United States (KVRB) 27-39N 080-25W 10M
Feb 24, 2020 - 01:53 AM EST / 2020.02.24 0653 UTC
Wind: Calm:0
Visibility: 10 mile(s):0
Sky conditions: clear
Temperature: 55.9 F (13.3 C)
Dew Point: 52.0 F (11.1 C)
Relative Humidity: 86%
Pressure (altimeter): 30.14 in. Hg (1020 hPa)
ob: KVRB 240653Z AUTO 00000KT 10SM CLR 13/11 A3014 RMK AO2 SLP204 T01330111
cycle: 7

Station Type Date Time Source
KVRB TAF 2020/02/24 06:24 UTC NOAA

TAF KVRB 240523Z 2406/2506 VRB03KT P6SM BKN250
FM241600 13013G18KT P6SM SCT035 BKN250
FM250000 14007KT P6SM FEW040 SCT250

Example: see airport list